Time;durP1;ratioP1;P1;durP2;ratioP2;P2;SDS_P1;SDS_P2;PMS_P1;PMS_P2;Temp;Humidity;BMP_temperature;BMP_pressure;BME280_temperature;BME280_humidity;BME280_pressure;Samples;Min_cycle;Max_cycle;Signal;HPM_P1;HPM_P2
2023/10/15 00:02:13;;;;;;;3.20;0.85;;;;;;;;;;5124152;27;20154;-55
2023/10/15 00:04:40;;;;;;;2.47;0.68;;;;;;;;;;5121714;27;20605;-55
2023/10/15 00:07:07;;;;;;;2.63;0.68;;;;;;;;;;5115391;27;20048;-53
2023/10/15 00:09:33;;;;;;;1.85;0.40;;;;;;;;;;5119693;27;20047;-59
2023/10/15 00:12:00;;;;;;;2.45;0.80;;;;;;;;;;5122512;27;20056;-59
2023/10/15 00:14:26;;;;;;;3.33;0.65;;;;;;;;;;5115464;27;20102;-52
2023/10/15 00:16:59;;;;;;;3.03;1.10;;;;;;;;;;5123313;27;20101;-59
2023/10/15 00:19:26;;;;;;;3.63;0.88;;;;;;;;;;5126348;27;20594;-59
2023/10/15 00:21:53;;;;;;;1.63;0.80;;;;;;;;;;5122397;27;20052;-57
2023/10/15 00:24:20;;;;;;;2.90;0.60;;;;;;;;;;5123654;27;20552;-58
2023/10/15 00:26:46;;;;;;;2.83;0.73;;;;;;;;;;5124685;27;20075;-58
2023/10/15 00:29:12;;;;;;;2.10;0.80;;;;;;;;;;5125658;27;20131;-58
2023/10/15 00:31:41;;;;;;;2.50;1.55;;;;;;;;;;5122772;27;20051;-59
2023/10/15 00:34:12;;;;;;;2.10;0.82;;;;;;;;;;5124932;27;20051;-55
2023/10/15 00:36:39;;;;;;;1.05;0.63;;;;;;;;;;5123180;27;20058;-59
2023/10/15 00:39:12;;;;;;;3.75;0.98;;;;;;;;;;5117112;27;20109;-57
2023/10/15 00:41:40;;;;;;;1.73;0.70;;;;;;;;;;5113149;27;20064;-57
2023/10/15 00:44:09;;;;;;;4.00;1.05;;;;;;;;;;5124387;27;20056;-55
2023/10/15 00:46:37;;;;;;;3.60;1.00;;;;;;;;;;5116508;27;20113;-56
2023/10/15 00:49:10;;;;;;;2.90;0.95;;;;;;;;;;5112610;27;20151;-56
2023/10/15 00:51:46;;;;;;;2.75;1.00;;;;;;;;;;5120993;27;20062;-56
2023/10/15 00:54:16;;;;;;;1.77;1.10;;;;;;;;;;5125548;27;20876;-56
2023/10/15 00:56:44;;;;;;;5.82;1.95;;;;;;;;;;5122188;27;20079;-58
2023/10/15 00:59:18;;;;;;;5.00;1.45;;;;;;;;;;5116827;27;20105;-58
2023/10/15 01:01:54;;;;;;;3.40;0.90;;;;;;;;;;5104738;27;20075;-59
2023/10/15 01:04:31;;;;;;;2.25;0.70;;;;;;;;;;5118840;27;20051;-56
2023/10/15 01:07:13;;;;;;;7.38;1.20;;;;;;;;;;5117560;27;20136;-58
2023/10/15 01:09:39;;;;;;;5.85;1.20;;;;;;;;;;5118332;27;20468;-57
2023/10/15 01:14:51;;;;;;;4.32;1.17;;;;;;;;;;5121012;27;20150;-58
2023/10/15 01:17:17;;;;;;;2.78;0.80;;;;;;;;;;5127807;27;20059;-55
2023/10/15 01:19:44;;;;;;;4.38;1.25;;;;;;;;;;5114416;27;20052;-56
2023/10/15 01:22:17;;;;;;;1.60;0.85;;;;;;;;;;5120137;27;20113;-59
2023/10/15 01:24:49;;;;;;;4.57;1.00;;;;;;;;;;5124412;27;20058;-57
2023/10/15 01:27:22;;;;;;;3.72;1.42;;;;;;;;;;5119877;27;20484;-58
2023/10/15 01:29:49;;;;;;;3.38;1.20;;;;;;;;;;5119613;27;20509;-58
2023/10/15 01:32:18;;;;;;;3.42;0.90;;;;;;;;;;5123919;27;20425;-59
2023/10/15 01:34:45;;;;;;;7.25;1.27;;;;;;;;;;5124509;27;20062;-58
2023/10/15 01:37:15;;;;;;;5.25;0.85;;;;;;;;;;5119588;27;20052;-57
2023/10/15 01:39:47;;;;;;;1.63;0.93;;;;;;;;;;5121378;27;20056;-56
2023/10/15 01:47:45;;;;;;;3.10;0.95;;;;;;;;;;5122380;27;20120;-57
2023/10/15 01:50:15;;;;;;;1.65;0.70;;;;;;;;;;5114266;27;20486;-57
2023/10/15 01:52:42;;;;;;;4.68;1.13;;;;;;;;;;5121985;27;20055;-56
2023/10/15 01:55:08;;;;;;;2.30;0.63;;;;;;;;;;5143135;27;20051;-55
2023/10/15 01:57:38;;;;;;;4.05;1.25;;;;;;;;;;5118660;27;20121;-58
2023/10/15 02:00:13;;;;;;;3.13;0.80;;;;;;;;;;5109696;27;20059;-59
2023/10/15 02:02:43;;;;;;;2.70;1.10;;;;;;;;;;5114460;27;20062;-59
2023/10/15 02:05:29;;;;;;;2.85;0.80;;;;;;;;;;5118331;27;21208;-54
2023/10/15 02:07:56;;;;;;;3.85;1.10;;;;;;;;;;5112273;27;20062;-57
2023/10/15 02:10:23;;;;;;;4.07;1.17;;;;;;;;;;5111613;27;20104;-58
2023/10/15 02:13:00;;;;;;;3.17;1.00;;;;;;;;;;5121406;27;20054;-54
2023/10/15 02:15:31;;;;;;;2.72;0.73;;;;;;;;;;5122645;27;20060;-55
2023/10/15 02:17:59;;;;;;;2.53;0.93;;;;;;;;;;5119741;27;20403;-57
2023/10/15 02:23:20;;;;;;;1.77;1.05;;;;;;;;;;5119312;27;20055;-58
2023/10/15 02:25:56;;;;;;;1.13;0.47;;;;;;;;;;5111438;27;20131;-55
2023/10/15 02:28:31;;;;;;;;;;;;;;;;;;5116366;27;20047;-58
2023/10/15 02:31:06;;;;;;;2.97;0.60;;;;;;;;;;5113720;27;45437;-58
2023/10/15 02:33:32;;;;;;;0.95;0.50;;;;;;;;;;5115556;27;20051;-55
2023/10/15 02:35:59;;;;;;;3.13;0.70;;;;;;;;;;5112872;27;21964;-56
2023/10/15 02:38:26;;;;;;;2.00;1.00;;;;;;;;;;5112714;27;20132;-56
2023/10/15 02:40:58;;;;;;;1.52;0.40;;;;;;;;;;5112880;27;20059;-59
2023/10/15 02:43:28;;;;;;;0.88;0.50;;;;;;;;;;5119030;27;20055;-58
2023/10/15 02:45:55;;;;;;;1.90;0.85;;;;;;;;;;5123238;27;20052;-56
2023/10/15 02:48:21;;;;;;;5.72;1.58;;;;;;;;;;5120667;27;20439;-57
2023/10/15 02:51:02;;;;;;;5.93;1.60;;;;;;;;;;5122876;27;20086;-56
2023/10/15 02:53:34;;;;;;;0.52;0.40;;;;;;;;;;5114939;27;20044;-59
2023/10/15 02:56:10;;;;;;;1.63;0.57;;;;;;;;;;5103837;27;20056;-57
2023/10/15 02:58:38;;;;;;;2.17;0.65;;;;;;;;;;5118421;27;20067;-58
2023/10/15 03:01:12;;;;;;;2.10;0.80;;;;;;;;;;5112617;27;20055;-55
2023/10/15 03:03:48;;;;;;;0.68;0.50;;;;;;;;;;5122388;27;20669;-59
2023/10/15 03:06:18;;;;;;;;;;;;;;;;;;5122457;27;20055;-56
2023/10/15 03:08:45;;;;;;;2.63;0.80;;;;;;;;;;5118283;27;44382;-58
2023/10/15 03:11:18;;;;;;;3.78;0.70;;;;;;;;;;5122728;27;20051;-59
2023/10/15 03:13:50;;;;;;;1.92;0.50;;;;;;;;;;5122136;27;20444;-57
2023/10/15 03:16:18;;;;;;;4.70;0.80;;;;;;;;;;5123065;27;20052;-57
2023/10/15 03:18:48;;;;;;;1.23;0.60;;;;;;;;;;5122451;27;20479;-54
2023/10/15 03:21:25;;;;;;;0.90;0.73;;;;;;;;;;5122393;27;20510;-57
2023/10/15 03:23:52;;;;;;;3.75;0.70;;;;;;;;;;5101073;28;20564;-58
2023/10/15 03:26:18;;;;;;;3.67;0.77;;;;;;;;;;5103407;27;20052;-56
2023/10/15 03:28:46;;;;;;;5.18;1.05;;;;;;;;;;5119651;27;20054;-54
2023/10/15 03:31:15;;;;;;;3.90;0.80;;;;;;;;;;5122920;27;20052;-56
2023/10/15 03:34:03;;;;;;;3.33;0.70;;;;;;;;;;5123138;27;20051;-55
2023/10/15 03:39:15;;;;;;;2.42;0.65;;;;;;;;;;5121879;27;20048;-56
2023/10/15 03:41:52;;;;;;;3.75;0.85;;;;;;;;;;5115373;27;20058;-58
2023/10/15 03:44:23;;;;;;;1.73;0.80;;;;;;;;;;5123194;27;20059;-56
2023/10/15 03:46:51;;;;;;;2.63;0.70;;;;;;;;;;5119705;27;20051;-56
2023/10/15 03:49:27;;;;;;;1.45;0.55;;;;;;;;;;5118727;27;20047;-58
2023/10/15 03:51:53;;;;;;;;;;;;;;;;;;5122004;27;20583;-56
2023/10/15 03:54:22;;;;;;;2.08;0.52;;;;;;;;;;5113088;27;45877;-56
2023/10/15 03:56:49;;;;;;;1.77;0.98;;;;;;;;;;5111288;27;20058;-56
2023/10/15 03:59:15;;;;;;;2.25;0.50;;;;;;;;;;5139166;27;20135;-55
2023/10/15 04:01:47;;;;;;;2.35;0.65;;;;;;;;;;5124880;27;20104;-57
2023/10/15 04:04:16;;;;;;;1.52;0.70;;;;;;;;;;5111332;27;20840;-56
2023/10/15 04:06:45;;;;;;;1.83;0.73;;;;;;;;;;5116093;27;20102;-57
2023/10/15 04:09:15;;;;;;;1.92;0.60;;;;;;;;;;5104332;27;20060;-58
2023/10/15 04:11:44;;;;;;;4.55;0.95;;;;;;;;;;5105945;27;20059;-57
2023/10/15 04:14:22;;;;;;;3.28;0.90;;;;;;;;;;5138492;27;20059;-55
2023/10/15 04:16:50;;;;;;;1.45;0.57;;;;;;;;;;5119136;27;20060;-55
2023/10/15 04:19:17;;;;;;;2.78;0.77;;;;;;;;;;5109525;27;20475;-56
2023/10/15 04:21:45;;;;;;;1.70;1.05;;;;;;;;;;5125890;27;20044;-56
2023/10/15 04:24:17;;;;;;;2.63;0.77;;;;;;;;;;5126566;27;20061;-58
2023/10/15 04:26:48;;;;;;;3.60;0.80;;;;;;;;;;5109090;27;20048;-57
2023/10/15 04:29:18;;;;;;;1.70;0.60;;;;;;;;;;5130253;27;20116;-58
2023/10/15 04:31:45;;;;;;;2.95;0.70;;;;;;;;;;5122813;27;20493;-57
2023/10/15 04:34:18;;;;;;;4.07;1.00;;;;;;;;;;5126423;27;20502;-56
2023/10/15 04:36:45;;;;;;;3.67;0.70;;;;;;;;;;5105405;28;20060;-57
2023/10/15 04:39:12;;;;;;;3.78;0.75;;;;;;;;;;5104463;27;20117;-57
2023/10/15 04:41:40;;;;;;;5.00;0.70;;;;;;;;;;5123590;27;20673;-58
2023/10/15 04:44:20;;;;;;;4.75;0.73;;;;;;;;;;5133308;27;20618;-57
2023/10/15 04:46:46;;;;;;;1.30;0.80;;;;;;;;;;5113690;27;20048;-57
2023/10/15 04:49:17;;;;;;;2.20;0.98;;;;;;;;;;5109284;27;20555;-57
2023/10/15 04:51:44;;;;;;;5.43;0.82;;;;;;;;;;5124180;27;20515;-59
2023/10/15 04:54:12;;;;;;;4.55;0.80;;;;;;;;;;5117886;27;20587;-58
2023/10/15 04:56:38;;;;;;;4.32;0.82;;;;;;;;;;5104761;27;20525;-56
2023/10/15 04:59:05;;;;;;;4.13;1.00;;;;;;;;;;5105644;27;20059;-58
2023/10/15 05:01:33;;;;;;;5.38;1.27;;;;;;;;;;5120190;27;20642;-57
2023/10/15 05:04:00;;;;;;;3.10;0.80;;;;;;;;;;5134975;27;20079;-56
2023/10/15 05:06:27;;;;;;;3.17;1.02;;;;;;;;;;5124484;27;20137;-56
2023/10/15 05:08:55;;;;;;;3.28;0.80;;;;;;;;;;5120888;27;20498;-56
2023/10/15 05:11:23;;;;;;;3.17;0.80;;;;;;;;;;5106724;27;20129;-58
2023/10/15 05:13:50;;;;;;;1.92;0.77;;;;;;;;;;5111922;27;20100;-56
2023/10/15 05:16:17;;;;;;;2.65;0.90;;;;;;;;;;5123578;27;20058;-58
2023/10/15 05:18:44;;;;;;;1.83;0.80;;;;;;;;;;5104491;27;20510;-56
2023/10/15 05:21:13;;;;;;;1.92;0.70;;;;;;;;;;5124269;27;20053;-56
2023/10/15 05:23:39;;;;;;;8.98;1.02;;;;;;;;;;5124790;27;20055;-59
2023/10/15 05:26:05;;;;;;;1.17;0.65;;;;;;;;;;5108803;27;20133;-58
2023/10/15 05:28:32;;;;;;;5.20;0.85;;;;;;;;;;5105628;27;20504;-59
2023/10/15 05:30:58;;;;;;;4.53;0.85;;;;;;;;;;5135610;27;20062;-56
2023/10/15 05:33:25;;;;;;;1.45;0.65;;;;;;;;;;5124219;27;20047;-57
2023/10/15 05:35:52;;;;;;;3.47;0.65;;;;;;;;;;5123658;27;20055;-57
2023/10/15 05:38:18;;;;;;;1.63;0.82;;;;;;;;;;5124870;27;20051;-57
2023/10/15 05:40:45;;;;;;;2.03;0.85;;;;;;;;;;5125106;27;20108;-58
2023/10/15 05:43:12;;;;;;;2.40;0.75;;;;;;;;;;5108442;27;20055;-57
2023/10/15 05:45:39;;;;;;;2.05;0.77;;;;;;;;;;5112137;27;20048;-57
2023/10/15 05:48:07;;;;;;;3.15;0.80;;;;;;;;;;5104047;27;20039;-59
2023/10/15 05:50:34;;;;;;;4.38;1.00;;;;;;;;;;5103947;27;20052;-54
2023/10/15 05:53:00;;;;;;;3.42;0.90;;;;;;;;;;5104152;28;20518;-58
2023/10/15 05:55:27;;;;;;;3.78;0.90;;;;;;;;;;5112719;27;20408;-57
2023/10/15 05:57:54;;;;;;;2.05;1.10;;;;;;;;;;5124481;27;20051;-57
2023/10/15 06:00:26;;;;;;;4.50;0.98;;;;;;;;;;5113053;27;20578;-57
2023/10/15 06:02:56;;;;;;;5.30;0.82;;;;;;;;;;5105820;27;20052;-59
2023/10/15 06:05:23;;;;;;;4.47;0.98;;;;;;;;;;5103003;27;20052;-59
2023/10/15 06:07:50;;;;;;;4.22;1.00;;;;;;;;;;5103233;27;20538;-55
2023/10/15 06:10:17;;;;;;;2.88;0.77;;;;;;;;;;5115320;27;20056;-59
2023/10/15 06:12:43;;;;;;;2.50;0.98;;;;;;;;;;5123243;27;20101;-58
2023/10/15 06:15:11;;;;;;;2.58;1.10;;;;;;;;;;5136854;27;20051;-57
2023/10/15 06:17:42;;;;;;;2.15;0.75;;;;;;;;;;5115317;27;20054;-58
2023/10/15 06:20:12;;;;;;;4.18;1.23;;;;;;;;;;5102949;27;20127;-56
2023/10/15 06:22:39;;;;;;;4.32;0.98;;;;;;;;;;5102840;27;20133;-57
2023/10/15 06:25:08;;;;;;;3.28;0.90;;;;;;;;;;5104128;27;20699;-58
2023/10/15 06:27:38;;;;;;;1.73;0.82;;;;;;;;;;5121047;27;20127;-57
2023/10/15 06:30:06;;;;;;;2.33;0.80;;;;;;;;;;5122912;27;20101;-57
2023/10/15 06:32:32;;;;;;;2.30;1.40;;;;;;;;;;5123428;27;20051;-56
2023/10/15 06:34:59;;;;;;;2.15;0.60;;;;;;;;;;5123966;27;20075;-58
2023/10/15 06:37:26;;;;;;;2.22;1.42;;;;;;;;;;5121993;27;20528;-59
2023/10/15 06:39:52;;;;;;;3.85;0.80;;;;;;;;;;5131397;27;20116;-59
2023/10/15 06:42:30;;;;;;;1.75;1.02;;;;;;;;;;5123933;27;20737;-58
2023/10/15 06:44:56;;;;;;;1.58;0.95;;;;;;;;;;5102947;27;20155;-59
2023/10/15 06:47:22;;;;;;;3.90;0.82;;;;;;;;;;5102773;27;20075;-57
2023/10/15 06:49:49;;;;;;;4.70;1.27;;;;;;;;;;5116977;27;20144;-56
2023/10/15 06:52:17;;;;;;;2.63;1.33;;;;;;;;;;5114695;27;20056;-58
2023/10/15 06:54:44;;;;;;;1.77;0.65;;;;;;;;;;5123792;27;20050;-58
2023/10/15 06:57:10;;;;;;;1.83;0.68;;;;;;;;;;5126173;27;20055;-58
2023/10/15 06:59:37;;;;;;;1.88;0.77;;;;;;;;;;5108296;27;20056;-57
2023/10/15 07:02:06;;;;;;;3.97;1.15;;;;;;;;;;5116292;27;20378;-56
2023/10/15 07:04:33;;;;;;;3.35;1.08;;;;;;;;;;5125880;27;20480;-58
2023/10/15 07:06:59;;;;;;;4.30;1.10;;;;;;;;;;5125639;27;20189;-58
2023/10/15 07:09:27;;;;;;;4.55;1.00;;;;;;;;;;5132393;27;20060;-58
2023/10/15 07:11:53;;;;;;;5.28;1.48;;;;;;;;;;5106657;27;20055;-57
2023/10/15 07:14:20;;;;;;;6.32;1.60;;;;;;;;;;5102515;27;20048;-56
2023/10/15 07:16:46;;;;;;;2.83;0.95;;;;;;;;;;5106423;27;20626;-58
2023/10/15 07:19:13;;;;;;;0.90;0.80;;;;;;;;;;5113933;27;20101;-55
2023/10/15 07:21:39;;;;;;;9.88;2.05;;;;;;;;;;5131051;27;20075;-58
2023/10/15 07:24:06;;;;;;;1.33;0.80;;;;;;;;;;5122771;27;20146;-58
2023/10/15 07:26:33;;;;;;;3.65;0.88;;;;;;;;;;5108031;27;20048;-57
2023/10/15 07:28:59;;;;;;;3.65;1.33;;;;;;;;;;5123248;27;20048;-55
2023/10/15 07:31:25;;;;;;;3.42;1.23;;;;;;;;;;5117365;27;20074;-58
2023/10/15 07:33:53;;;;;;;3.75;1.08;;;;;;;;;;5125423;27;20054;-58
2023/10/15 07:36:21;;;;;;;4.18;1.63;;;;;;;;;;5129642;27;20060;-56
2023/10/15 07:38:48;;;;;;;4.35;1.33;;;;;;;;;;5125013;27;20395;-58
2023/10/15 07:41:14;;;;;;;3.28;1.02;;;;;;;;;;5115176;27;20974;-58
2023/10/15 07:43:42;;;;;;;4.05;1.10;;;;;;;;;;5122264;27;20059;-57
2023/10/15 07:46:09;;;;;;;1.95;0.65;;;;;;;;;;5122289;27;20611;-58
2023/10/15 07:48:36;;;;;;;1.10;0.52;;;;;;;;;;5122359;27;20170;-57
2023/10/15 07:51:03;;;;;;;3.10;0.80;;;;;;;;;;5123372;27;20051;-58
2023/10/15 07:53:30;;;;;;;1.45;0.55;;;;;;;;;;5122311;27;20138;-54
2023/10/15 07:55:56;;;;;;;3.42;0.52;;;;;;;;;;5110553;27;20506;-55
2023/10/15 07:58:23;;;;;;;1.73;0.60;;;;;;;;;;5111268;27;20056;-58
2023/10/15 08:00:52;;;;;;;2.88;0.80;;;;;;;;;;5112928;27;20051;-55
2023/10/15 08:03:37;;;;;;;3.83;0.68;;;;;;;;;;5102410;27;20052;-58
2023/10/15 08:06:04;;;;;;;0.93;0.40;;;;;;;;;;5101996;27;20048;-58
2023/10/15 08:08:31;;;;;;;1.45;0.40;;;;;;;;;;5112255;27;20055;-58
2023/10/15 08:10:57;;;;;;;1.45;0.43;;;;;;;;;;5122553;27;20178;-59
2023/10/15 08:13:24;;;;;;;1.00;0.60;;;;;;;;;;5123075;27;20078;-58
2023/10/15 08:15:51;;;;;;;1.70;0.45;;;;;;;;;;5126459;27;20055;-58
2023/10/15 08:18:20;;;;;;;0.82;0.50;;;;;;;;;;5115075;27;20052;-58
2023/10/15 08:20:47;;;;;;;0.73;0.45;;;;;;;;;;5121688;27;20078;-59
2023/10/15 08:23:13;;;;;;;2.15;0.77;;;;;;;;;;5122262;27;20058;-57
2023/10/15 08:25:40;;;;;;;1.98;0.50;;;;;;;;;;5122633;27;20443;-55
2023/10/15 08:28:07;;;;;;;1.15;0.52;;;;;;;;;;5126317;27;20501;-59
2023/10/15 08:30:34;;;;;;;3.72;0.63;;;;;;;;;;5119617;27;20056;-58
2023/10/15 08:33:01;;;;;;;0.70;0.38;;;;;;;;;;5121807;27;20054;-58
2023/10/15 08:35:28;;;;;;;1.55;0.40;;;;;;;;;;5134730;27;20051;-56
2023/10/15 08:37:59;;;;;;;3.33;0.60;;;;;;;;;;5118676;27;20058;-57
2023/10/15 08:40:26;;;;;;;1.35;0.40;;;;;;;;;;5120695;27;20129;-56
2023/10/15 08:43:02;;;;;;;1.02;0.50;;;;;;;;;;5125474;27;20511;-55
2023/10/15 08:45:29;;;;;;;0.75;0.30;;;;;;;;;;5122306;27;20051;-59
2023/10/15 08:47:58;;;;;;;4.07;0.70;;;;;;;;;;5105578;27;20573;-59
2023/10/15 08:50:27;;;;;;;2.60;0.50;;;;;;;;;;5104094;27;20109;-55
2023/10/15 08:52:53;;;;;;;2.63;0.50;;;;;;;;;;5113797;27;20661;-58
2023/10/15 08:55:23;;;;;;;2.30;0.50;;;;;;;;;;5121158;27;20144;-58
2023/10/15 08:57:54;;;;;;;1.13;0.60;;;;;;;;;;5116047;27;20083;-55
2023/10/15 09:00:30;;;;;;;3.25;0.68;;;;;;;;;;5123378;27;20040;-59
2023/10/15 09:03:02;;;;;;;3.85;0.70;;;;;;;;;;5126517;27;20100;-57
2023/10/15 09:05:40;;;;;;;2.90;0.70;;;;;;;;;;5127105;27;20060;-57
2023/10/15 09:08:07;;;;;;;3.38;0.55;;;;;;;;;;5112338;27;20056;-53
2023/10/15 09:10:41;;;;;;;3.40;1.17;;;;;;;;;;5125302;27;20056;-55
2023/10/15 09:13:14;;;;;;;1.50;0.43;;;;;;;;;;5104397;27;20561;-56
2023/10/15 09:15:43;;;;;;;1.30;0.52;;;;;;;;;;5104003;27;20494;-56
2023/10/15 09:18:15;;;;;;;2.38;0.60;;;;;;;;;;5117430;27;20506;-58
2023/10/15 09:20:47;;;;;;;3.38;1.02;;;;;;;;;;5111561;27;20058;-56
2023/10/15 09:23:14;;;;;;;4.47;0.60;;;;;;;;;;5121679;27;20062;-58
2023/10/15 09:25:41;;;;;;;3.72;1.23;;;;;;;;;;5124081;27;20147;-57
2023/10/15 09:28:08;;;;;;;5.65;1.00;;;;;;;;;;5117735;27;20062;-56
2023/10/15 09:30:34;;;;;;;3.92;0.90;;;;;;;;;;5107837;27;20529;-57
2023/10/15 09:33:01;;;;;;;2.25;0.68;;;;;;;;;;5121387;27;20052;-55
2023/10/15 09:35:29;;;;;;;3.28;1.35;;;;;;;;;;5120638;27;20417;-57
2023/10/15 09:37:56;;;;;;;5.88;1.25;;;;;;;;;;5119520;27;20581;-57
2023/10/15 09:40:31;;;;;;;3.90;1.30;;;;;;;;;;5117907;27;20048;-57
2023/10/15 09:42:59;;;;;;;2.78;0.68;;;;;;;;;;5120994;27;20754;-55
2023/10/15 09:45:26;;;;;;;4.22;0.93;;;;;;;;;;5118264;27;20121;-58
2023/10/15 09:47:57;;;;;;;4.25;1.00;;;;;;;;;;5107570;27;20052;-54
2023/10/15 09:50:25;;;;;;;1.92;0.57;;;;;;;;;;5116139;27;20074;-53
2023/10/15 09:52:56;;;;;;;3.55;0.68;;;;;;;;;;5121544;27;20055;-54
2023/10/15 09:55:23;;;;;;;5.57;1.30;;;;;;;;;;5121313;27;20055;-57
2023/10/15 09:57:54;;;;;;;3.17;0.93;;;;;;;;;;5110096;27;20059;-57
2023/10/15 10:00:32;;;;;;;4.38;1.02;;;;;;;;;;5106379;27;20056;-58
2023/10/15 10:03:10;;;;;;;6.20;1.10;;;;;;;;;;5114924;27;20091;-58
2023/10/15 10:05:44;;;;;;;4.65;1.08;;;;;;;;;;5134756;27;20051;-58
2023/10/15 10:08:41;;;;;;;5.25;1.25;;;;;;;;;;5124280;27;20228;-58
2023/10/15 10:11:07;;;;;;;;;;;;;;;;;;5058669;28;20060;-57
2023/10/15 10:13:56;;;;;;;2.70;0.73;;;;;;;;;;5058625;28;45288;-58
2023/10/15 10:16:24;;;;;;;4.93;1.30;;;;;;;;;;5058786;28;20053;-60
2023/10/15 10:18:51;;;;;;;5.18;1.15;;;;;;;;;;5047469;28;20567;-58
2023/10/15 10:21:19;;;;;;;2.92;1.00;;;;;;;;;;5053497;28;20085;-57
2023/10/15 10:23:49;;;;;;;4.57;0.95;;;;;;;;;;5059900;28;20093;-56
2023/10/15 10:26:17;;;;;;;5.03;1.10;;;;;;;;;;5040236;28;20061;-56
2023/10/15 10:28:45;;;;;;;1.95;0.82;;;;;;;;;;5054375;28;20140;-58
2023/10/15 10:31:13;;;;;;;3.75;1.55;;;;;;;;;;5047316;28;20084;-57
2023/10/15 10:33:46;;;;;;;3.03;0.80;;;;;;;;;;5058399;28;21148;-57
2023/10/15 10:36:18;;;;;;;3.38;1.00;;;;;;;;;;5047889;28;20159;-57
2023/10/15 10:39:18;;;;;;;1.90;0.60;;;;;;;;;;5057611;28;20059;-57
2023/10/15 10:41:48;;;;;;;1.73;0.60;;;;;;;;;;5050284;28;20049;-58
2023/10/15 10:44:24;;;;;;;4.97;0.82;;;;;;;;;;5039845;28;20083;-57
2023/10/15 10:47:21;;;;;;;5.32;1.35;;;;;;;;;;5071324;27;20048;-56
2023/10/15 10:50:03;;;;;;;5.03;1.30;;;;;;;;;;5113037;27;20549;-54
2023/10/15 10:52:33;;;;;;;6.47;1.52;;;;;;;;;;5112898;27;20056;-56
2023/10/15 10:55:19;;;;;;;3.30;0.77;;;;;;;;;;5108405;27;20051;-54
2023/10/15 10:57:49;;;;;;;5.20;1.33;;;;;;;;;;5116278;27;20533;-56
2023/10/15 11:00:15;;;;;;;4.78;1.15;;;;;;;;;;5118443;27;20047;-55
2023/10/15 11:02:43;;;;;;;5.78;0.95;;;;;;;;;;5120926;27;20055;-56
2023/10/15 11:05:11;;;;;;;5.72;1.20;;;;;;;;;;5122005;27;20079;-55
2023/10/15 11:07:40;;;;;;;5.57;1.50;;;;;;;;;;5123085;27;20054;-57
2023/10/15 11:10:09;;;;;;;3.97;0.90;;;;;;;;;;5110889;27;20604;-56
2023/10/15 11:12:36;;;;;;;5.70;1.05;;;;;;;;;;5123178;27;20501;-57
2023/10/15 11:15:07;;;;;;;4.68;1.10;;;;;;;;;;5120896;27;20057;-57
2023/10/15 11:17:34;;;;;;;4.20;0.90;;;;;;;;;;5106350;27;20048;-59
2023/10/15 11:20:01;;;;;;;5.10;0.80;;;;;;;;;;5111257;27;20461;-56
2023/10/15 11:22:27;;;;;;;3.67;1.70;;;;;;;;;;5110318;27;20048;-56
2023/10/15 11:24:55;;;;;;;4.65;1.00;;;;;;;;;;5108727;27;20052;-57
2023/10/15 11:27:21;;;;;;;5.90;1.90;;;;;;;;;;5121373;27;20052;-58
2023/10/15 11:29:49;;;;;;;4.03;1.42;;;;;;;;;;5121461;27;20059;-59
2023/10/15 11:32:15;;;;;;;5.25;1.95;;;;;;;;;;5125001;27;20047;-56
2023/10/15 11:34:42;;;;;;;4.38;1.30;;;;;;;;;;5122022;27;20055;-59
2023/10/15 11:37:09;;;;;;;3.67;1.10;;;;;;;;;;5119155;27;20097;-58
2023/10/15 11:39:47;;;;;;;4.63;1.20;;;;;;;;;;5104118;27;20489;-57
2023/10/15 11:42:14;;;;;;;8.10;4.65;;;;;;;;;;5121273;27;20621;-59
2023/10/15 11:44:44;;;;;;;4.18;1.67;;;;;;;;;;5122978;27;20502;-59
2023/10/15 11:47:11;;;;;;;2.70;1.20;;;;;;;;;;5115921;27;20407;-59
2023/10/15 11:49:42;;;;;;;6.68;1.17;;;;;;;;;;5102167;27;20342;-59
2023/10/15 11:52:11;;;;;;;4.43;0.90;;;;;;;;;;5123187;27;20056;-59
2023/10/15 11:54:49;;;;;;;1.83;0.88;;;;;;;;;;5122872;27;20567;-59
2023/10/15 11:57:20;;;;;;;5.18;0.77;;;;;;;;;;5104193;27;20052;-60
2023/10/15 11:59:48;;;;;;;5.65;1.02;;;;;;;;;;5102454;27;20468;-60
2023/10/15 12:02:18;;;;;;;6.05;1.10;;;;;;;;;;5103271;27;20403;-58
2023/10/15 12:04:51;;;;;;;5.15;0.93;;;;;;;;;;5102863;27;20260;-60
2023/10/15 12:07:21;;;;;;;4.25;1.05;;;;;;;;;;5117729;27;20051;-60
2023/10/15 12:09:48;;;;;;;3.80;0.88;;;;;;;;;;5121986;27;20097;-59
2023/10/15 12:12:15;;;;;;;5.10;1.48;;;;;;;;;;5120831;27;20566;-60
2023/10/15 12:14:41;;;;;;;3.38;1.13;;;;;;;;;;5126383;27;20087;-59
2023/10/15 12:17:07;;;;;;;3.17;0.70;;;;;;;;;;5107965;27;20506;-60
2023/10/15 12:19:34;;;;;;;1.83;0.68;;;;;;;;;;5108326;27;20565;-59
2023/10/15 12:22:01;;;;;;;3.42;1.15;;;;;;;;;;5125527;27;20075;-59
2023/10/15 12:24:27;;;;;;;3.67;0.77;;;;;;;;;;5127113;27;20051;-57
2023/10/15 12:26:54;;;;;;;4.95;0.95;;;;;;;;;;5126113;27;20083;-59
2023/10/15 12:29:28;;;;;;;3.03;0.80;;;;;;;;;;5123676;27;20056;-59
2023/10/15 12:31:56;;;;;;;3.38;0.85;;;;;;;;;;5117289;27;20162;-58
2023/10/15 12:34:24;;;;;;;4.68;1.02;;;;;;;;;;5124008;27;20569;-57
2023/10/15 12:36:52;;;;;;;3.28;0.80;;;;;;;;;;5125451;27;20058;-58
2023/10/15 12:39:26;;;;;;;2.55;0.68;;;;;;;;;;5125400;27;20505;-57
2023/10/15 12:41:54;;;;;;;1.80;0.50;;;;;;;;;;5126225;27;20055;-60
2023/10/15 12:44:22;;;;;;;4.88;0.73;;;;;;;;;;5119013;27;20501;-57
2023/10/15 12:46:50;;;;;;;3.08;1.10;;;;;;;;;;5107116;27;20047;-57
2023/10/15 12:49:19;;;;;;;3.83;0.95;;;;;;;;;;5125957;27;20062;-58
2023/10/15 12:51:45;;;;;;;2.80;0.90;;;;;;;;;;5124666;27;20085;-58
2023/10/15 12:54:13;;;;;;;2.95;0.75;;;;;;;;;;5116677;27;20055;-59
2023/10/15 12:56:39;;;;;;;3.20;0.77;;;;;;;;;;5121652;27;20055;-59
2023/10/15 12:59:06;;;;;;;6.97;0.80;;;;;;;;;;5106038;27;20561;-59
2023/10/15 13:01:33;;;;;;;4.85;0.90;;;;;;;;;;5112618;27;20159;-57
2023/10/15 13:04:00;;;;;;;3.05;0.63;;;;;;;;;;5117018;27;20255;-56
2023/10/15 13:06:26;;;;;;;2.88;0.80;;;;;;;;;;5109533;27;20067;-57
2023/10/15 13:08:53;;;;;;;3.13;0.70;;;;;;;;;;5124897;27;20055;-57
2023/10/15 13:11:19;;;;;;;3.85;1.25;;;;;;;;;;5124883;27;20065;-58
2023/10/15 13:13:46;;;;;;;5.45;1.45;;;;;;;;;;5145196;27;20051;-59
2023/10/15 13:16:12;;;;;;;2.70;0.95;;;;;;;;;;5111532;27;20048;-57
2023/10/15 13:18:39;;;;;;;3.22;0.93;;;;;;;;;;5124369;27;20236;-59
2023/10/15 13:21:09;;;;;;;3.45;1.10;;;;;;;;;;5117370;27;20113;-59
2023/10/15 13:23:36;;;;;;;4.30;0.73;;;;;;;;;;5120723;27;20446;-59
2023/10/15 13:26:04;;;;;;;4.43;1.40;;;;;;;;;;5124070;27;20055;-59
2023/10/15 13:28:32;;;;;;;3.67;1.15;;;;;;;;;;5120887;27;20560;-59
2023/10/15 13:30:58;;;;;;;3.92;1.30;;;;;;;;;;5105109;27;20044;-58
2023/10/15 13:33:25;;;;;;;5.78;1.30;;;;;;;;;;5116954;27;20105;-59
2023/10/15 13:35:51;;;;;;;4.78;0.88;;;;;;;;;;5112469;27;20110;-58
2023/10/15 13:38:17;;;;;;;3.35;1.13;;;;;;;;;;5105811;27;20470;-60
2023/10/15 13:40:44;;;;;;;4.20;1.00;;;;;;;;;;5104741;27;20151;-59
2023/10/15 13:43:11;;;;;;;2.80;0.90;;;;;;;;;;5103758;27;20458;-59
2023/10/15 13:45:37;;;;;;;2.30;0.65;;;;;;;;;;5103792;27;20112;-60
2023/10/15 13:48:05;;;;;;;4.85;0.77;;;;;;;;;;5112282;27;20140;-60
2023/10/15 13:50:33;;;;;;;4.15;0.73;;;;;;;;;;5124128;27;20138;-60
2023/10/15 13:52:59;;;;;;;9.68;1.42;;;;;;;;;;5125414;27;20220;-60
2023/10/15 13:55:26;;;;;;;4.25;0.90;;;;;;;;;;5122108;27;20158;-59
2023/10/15 13:57:53;;;;;;;2.30;0.68;;;;;;;;;;5113866;27;20581;-59
2023/10/15 14:00:21;;;;;;;0.95;0.43;;;;;;;;;;5103436;27;20109;-59
2023/10/15 14:02:48;;;;;;;2.47;0.57;;;;;;;;;;5104027;27;20578;-58
2023/10/15 14:05:16;;;;;;;1.60;0.73;;;;;;;;;;5123140;27;20135;-60
2023/10/15 14:07:45;;;;;;;1.13;0.30;;;;;;;;;;5111061;27;20133;-60
2023/10/15 14:10:12;;;;;;;4.70;0.75;;;;;;;;;;5110592;27;20073;-59
2023/10/15 14:12:39;;;;;;;3.88;0.50;;;;;;;;;;5123536;27;20051;-60
2023/10/15 14:15:06;;;;;;;1.75;0.70;;;;;;;;;;5104233;27;20052;-57
2023/10/15 14:17:32;;;;;;;2.88;0.93;;;;;;;;;;5122999;27;20576;-59
2023/10/15 14:19:59;;;;;;;2.70;0.40;;;;;;;;;;5123491;27;20059;-59
2023/10/15 14:22:25;;;;;;;1.80;0.77;;;;;;;;;;5120561;27;20129;-58
2023/10/15 14:24:53;;;;;;;4.20;0.65;;;;;;;;;;5113192;27;20055;-61
2023/10/15 14:27:19;;;;;;;2.95;0.80;;;;;;;;;;5115538;27;22271;-57
2023/10/15 14:29:46;;;;;;;3.03;0.90;;;;;;;;;;5122383;27;20048;-60
2023/10/15 14:32:13;;;;;;;3.72;1.02;;;;;;;;;;5121714;27;20123;-59
2023/10/15 14:34:39;;;;;;;13.63;1.08;;;;;;;;;;5128642;27;20075;-59
2023/10/15 14:37:06;;;;;;;2.70;0.98;;;;;;;;;;5114286;27;20062;-58
2023/10/15 14:39:32;;;;;;;2.22;0.77;;;;;;;;;;5117248;27;20056;-59
2023/10/15 14:41:59;;;;;;;3.80;1.05;;;;;;;;;;5119833;27;20101;-59
2023/10/15 14:44:25;;;;;;;4.85;1.48;;;;;;;;;;5124398;27;20052;-62
2023/10/15 14:46:52;;;;;;;3.00;1.00;;;;;;;;;;5120995;27;20079;-61
2023/10/15 14:49:19;;;;;;;3.70;0.80;;;;;;;;;;5121867;27;20059;-60
2023/10/15 14:51:46;;;;;;;1.73;0.70;;;;;;;;;;5120395;27;20058;-59
2023/10/15 14:54:12;;;;;;;3.50;0.75;;;;;;;;;;5118276;27;20051;-61
2023/10/15 14:56:39;;;;;;;3.30;1.10;;;;;;;;;;5125123;27;20214;-61
2023/10/15 14:59:06;;;;;;;1.63;0.70;;;;;;;;;;5128235;27;20058;-58
2023/10/15 15:01:33;;;;;;;5.93;1.02;;;;;;;;;;5131492;27;20139;-59
2023/10/15 15:04:00;;;;;;;2.88;1.00;;;;;;;;;;5108646;27;20135;-60
2023/10/15 15:06:27;;;;;;;2.75;0.70;;;;;;;;;;5130819;27;20048;-58
2023/10/15 15:08:54;;;;;;;6.18;0.88;;;;;;;;;;5123096;27;20059;-59